createdAt,value
2023-04-09T03:02:08.043Z,21.63
2023-04-09T03:04:35.344Z,24.63
2023-04-09T03:07:02.656Z,20.73
2023-04-09T03:09:30.768Z,20.53
2023-04-09T03:11:58.255Z,23.30
2023-04-09T03:14:39.439Z,22.23
2023-04-09T03:17:06.716Z,20.53
2023-04-09T03:19:35.139Z,20.93
2023-04-09T03:22:02.367Z,21.00
2023-04-09T03:24:29.572Z,24.10
2023-04-09T03:26:57.490Z,23.67
2023-04-09T03:29:24.816Z,22.27
2023-04-09T03:31:52.039Z,22.63
2023-04-09T03:34:19.228Z,23.43
2023-04-09T03:36:46.429Z,22.13
2023-04-09T03:39:13.614Z,22.93
2023-04-09T03:41:40.869Z,21.63
2023-04-09T03:44:08.041Z,23.50
2023-04-09T03:46:35.292Z,25.00
2023-04-09T03:49:02.612Z,23.40
2023-04-09T03:51:29.875Z,26.33
2023-04-09T03:53:57.133Z,25.10
2023-04-09T03:56:24.869Z,24.67
2023-04-09T03:58:52.184Z,24.43
2023-04-09T04:01:19.621Z,25.03
2023-04-09T04:03:46.939Z,22.97
2023-04-09T04:06:14.276Z,22.37
2023-04-09T04:08:41.531Z,23.97
2023-04-09T04:11:08.774Z,24.03
2023-04-09T04:13:36.012Z,23.73
2023-04-09T04:16:07.751Z,23.97
2023-04-09T04:18:35.917Z,24.47
2023-04-09T04:21:03.326Z,22.13
2023-04-09T04:23:30.730Z,26.13
2023-04-09T04:25:58.179Z,24.23
2023-04-09T04:28:25.522Z,26.20
2023-04-09T04:30:52.731Z,26.07
2023-04-09T04:33:20.006Z,24.57
2023-04-09T04:35:47.694Z,26.30
2023-04-09T04:38:14.952Z,25.70
2023-04-09T04:40:42.160Z,28.63
2023-04-09T04:43:09.373Z,25.23
2023-04-09T04:45:36.620Z,27.17
2023-04-09T04:48:03.953Z,25.07
2023-04-09T04:50:31.307Z,25.80
2023-04-09T04:52:58.518Z,23.27
2023-04-09T04:55:26.126Z,23.37
2023-04-09T04:57:53.472Z,25.73
2023-04-09T05:00:20.775Z,28.47
2023-04-09T05:02:48.256Z,26.03
2023-04-09T05:05:15.844Z,28.10
2023-04-09T05:07:43.051Z,28.27
2023-04-09T05:10:10.427Z,26.50
2023-04-09T05:12:37.711Z,26.50
2023-04-09T05:15:05.799Z,25.57
2023-04-09T05:17:33.177Z,22.97
2023-04-09T05:20:00.617Z,27.17
2023-04-09T05:22:27.857Z,25.90
2023-04-09T05:24:55.055Z,26.40
2023-04-09T05:27:24.232Z,34.50
2023-04-09T05:29:51.524Z,38.33
2023-04-09T05:32:18.814Z,36.23
2023-04-09T05:34:46.206Z,31.80
2023-04-09T05:37:13.822Z,30.10
2023-04-09T05:39:41.421Z,29.33
2023-04-09T05:42:08.754Z,31.57
2023-04-09T05:44:36.017Z,29.70
2023-04-09T05:47:03.443Z,29.13
2023-04-09T05:49:30.730Z,27.70
2023-04-09T05:51:58.072Z,27.97
2023-04-09T05:54:26.148Z,26.13
2023-04-09T05:56:53.408Z,27.70
2023-04-09T05:59:20.624Z,26.70
2023-04-09T06:01:47.884Z,27.73
2023-04-09T06:04:15.482Z,24.53
2023-04-09T06:06:42.747Z,23.73
2023-04-09T06:09:09.905Z,24.27
2023-04-09T06:11:37.118Z,25.70
2023-04-09T06:14:04.318Z,25.00
2023-04-09T06:16:32.952Z,24.47
2023-04-09T06:19:00.255Z,23.03
2023-04-09T06:21:27.574Z,22.40
2023-04-09T06:23:55.028Z,23.40
2023-04-09T06:26:22.710Z,23.17
2023-04-09T06:28:49.930Z,23.13
2023-04-09T06:31:17.171Z,24.17
2023-04-09T06:33:44.518Z,25.23
2023-04-09T06:36:11.731Z,24.10
2023-04-09T06:38:38.954Z,23.20
2023-04-09T06:41:08.466Z,25.60
2023-04-09T06:43:36.946Z,24.43
2023-04-09T06:46:04.241Z,23.50
2023-04-09T06:48:31.533Z,23.50
2023-04-09T06:50:58.797Z,24.30
2023-04-09T06:53:26.085Z,25.73
2023-04-09T06:55:54.464Z,25.67
2023-04-09T06:58:23.303Z,24.30
2023-04-09T07:00:50.734Z,24.57
2023-04-09T07:03:18.192Z,22.80
2023-04-09T07:05:45.921Z,19.33
2023-04-09T07:08:13.216Z,18.67
2023-04-09T07:10:40.991Z,23.03
2023-04-09T07:13:08.282Z,23.20
2023-04-09T07:15:35.614Z,22.53
2023-04-09T07:18:03.156Z,21.57
2023-04-09T07:20:31.111Z,32.87
2023-04-09T07:22:58.342Z,23.43
2023-04-09T07:25:25.591Z,22.93
2023-04-09T07:27:52.876Z,22.60
2023-04-09T07:30:20.283Z,22.27
2023-04-09T07:32:47.575Z,21.37
2023-04-09T07:35:14.861Z,22.87
2023-04-09T07:37:42.233Z,20.97
2023-04-09T07:40:09.658Z,17.73
2023-04-09T07:42:40.600Z,15.00
2023-04-09T07:45:08.408Z,15.47
2023-04-09T07:47:35.719Z,14.35
2023-04-09T07:50:03.032Z,14.32
2023-04-09T07:52:30.283Z,14.07
2023-04-09T07:54:57.941Z,14.77
2023-04-09T07:57:25.207Z,14.30
2023-04-09T07:59:53.623Z,15.15
2023-04-09T08:02:21.337Z,14.57
2023-04-09T08:04:48.840Z,13.93
2023-04-09T08:07:16.254Z,14.32
2023-04-09T08:09:43.485Z,14.93
2023-04-09T08:12:11.124Z,14.43
2023-04-09T08:14:38.372Z,13.93
2023-04-09T08:17:05.802Z,13.38
2023-04-09T08:19:33.062Z,13.82
2023-04-09T08:22:01.546Z,13.18
2023-04-09T08:24:28.877Z,13.30
2023-04-09T08:26:57.720Z,13.25
2023-04-09T08:29:24.997Z,12.93
2023-04-09T08:31:52.280Z,12.88
2023-04-09T08:34:21.146Z,12.73
2023-04-09T08:36:49.901Z,11.77
2023-04-09T08:39:20.129Z,12.07
2023-04-09T08:41:50.545Z,11.80
2023-04-09T08:44:18.142Z,13.93
2023-04-09T08:46:45.363Z,12.30
2023-04-09T08:49:12.962Z,12.70
2023-04-09T08:51:46.303Z,9.93
2023-04-09T08:54:17.239Z,9.70
2023-04-09T08:56:44.582Z,8.77
2023-04-09T08:59:14.878Z,10.23
2023-04-09T09:01:42.151Z,10.35
2023-04-09T09:04:10.621Z,10.00
2023-04-09T09:06:39.950Z,9.88
2023-04-09T09:09:10.231Z,10.27
2023-04-09T09:11:42.504Z,9.95
2023-04-09T09:14:11.904Z,10.07
2023-04-09T09:16:43.207Z,10.50
2023-04-09T09:19:26.015Z,9.35
2023-04-09T09:21:57.565Z,9.98
2023-04-09T09:24:24.871Z,9.65
2023-04-09T09:26:52.836Z,9.73
2023-04-09T09:29:20.540Z,8.65
2023-04-09T09:31:55.868Z,7.25
2023-04-09T09:34:24.485Z,8.30
2023-04-09T09:36:51.755Z,8.57
2023-04-09T09:39:19.136Z,7.75
2023-04-09T09:41:47.372Z,9.30
2023-04-09T09:44:32.242Z,8.30
2023-04-09T09:47:00.692Z,9.05
2023-04-09T09:49:27.898Z,8.30
2023-04-09T09:51:59.654Z,7.70
2023-04-09T09:54:32.457Z,9.13
2023-04-09T09:57:04.625Z,8.35
2023-04-09T09:59:37.602Z,9.18
2023-04-09T10:02:07.613Z,8.00
2023-04-09T10:04:38.305Z,8.75
2023-04-09T10:07:07.442Z,7.95
2023-04-09T10:09:37.730Z,8.70
2023-04-09T10:12:07.473Z,7.97
2023-04-09T10:14:36.068Z,8.43
2023-04-09T10:17:04.391Z,7.57
2023-04-09T10:19:35.768Z,7.43
2023-04-09T10:22:11.357Z,7.30
2023-04-09T10:24:38.891Z,8.18
2023-04-09T10:27:15.666Z,6.70
2023-04-09T10:29:48.743Z,8.37
2023-04-09T10:32:26.604Z,7.35
2023-04-09T10:34:58.807Z,7.18
2023-04-09T10:37:27.124Z,6.32
2023-04-09T10:39:54.718Z,6.68
2023-04-09T10:42:35.259Z,6.57
2023-04-09T10:45:11.175Z,6.25
2023-04-09T10:47:40.681Z,6.10
2023-04-09T10:50:24.523Z,6.55
2023-04-09T10:53:00.690Z,6.20
2023-04-09T10:55:38.253Z,5.53
2023-04-09T10:58:13.130Z,6.00
2023-04-09T11:00:43.378Z,6.85
2023-04-09T11:03:21.816Z,6.22
2023-04-09T11:05:53.954Z,5.40
2023-04-09T11:08:22.201Z,5.22
2023-04-09T11:10:52.042Z,5.93
2023-04-09T11:13:21.211Z,6.03
2023-04-09T11:15:48.495Z,6.22
2023-04-09T11:18:22.463Z,7.00
2023-04-09T11:20:49.981Z,6.00
2023-04-09T11:23:18.049Z,6.68
2023-04-09T11:25:49.877Z,6.57
2023-04-09T11:28:17.747Z,6.30
2023-04-09T11:30:46.901Z,6.68
2023-04-09T11:33:15.184Z,4.85
2023-04-09T11:35:44.052Z,5.25
2023-04-09T11:38:12.089Z,5.15
2023-04-09T11:40:49.824Z,7.72
2023-04-09T11:43:18.091Z,5.68
2023-04-09T11:45:48.594Z,4.82
2023-04-09T11:48:21.806Z,5.32
2023-04-09T11:50:49.720Z,5.18
2023-04-09T11:53:21.278Z,5.10
2023-04-09T11:55:51.676Z,5.30
2023-04-09T11:58:22.156Z,4.97
2023-04-09T12:00:52.368Z,5.60
2023-04-09T12:03:26.080Z,5.78
2023-04-09T12:05:53.475Z,5.32
2023-04-09T12:08:24.417Z,4.50
2023-04-09T12:10:53.895Z,4.70
2023-04-09T12:13:21.705Z,4.95
2023-04-09T12:15:50.174Z,5.43
2023-04-09T12:18:17.736Z,4.90
2023-04-09T12:20:47.486Z,6.22
2023-04-09T12:23:15.707Z,4.80
2023-04-09T12:25:45.228Z,5.00
2023-04-09T12:28:15.826Z,5.18
2023-04-09T12:30:43.674Z,6.65
2023-04-09T12:33:11.497Z,4.95
2023-04-09T12:35:39.185Z,5.05
2023-04-09T12:38:06.511Z,5.45
2023-04-09T12:40:34.900Z,7.03
2023-04-09T12:43:02.481Z,5.85
2023-04-09T12:45:30.387Z,6.10
2023-04-09T12:47:58.210Z,5.50
2023-04-09T12:50:25.636Z,6.15
2023-04-09T12:52:52.895Z,5.43
2023-04-09T12:55:20.193Z,5.30
2023-04-09T12:57:50.499Z,5.47
2023-04-09T13:00:17.702Z,6.20
2023-04-09T13:02:45.081Z,5.78
2023-04-09T13:05:12.483Z,6.25
2023-04-09T13:07:41.517Z,5.70
2023-04-09T13:10:10.485Z,5.60
2023-04-09T13:12:37.826Z,6.00
2023-04-09T13:15:05.776Z,6.22
2023-04-09T13:17:33.029Z,5.88
2023-04-09T13:20:00.281Z,6.00
2023-04-09T13:22:27.459Z,6.78
2023-04-09T13:24:54.706Z,7.05
2023-04-09T13:27:22.079Z,6.25
2023-04-09T13:29:49.320Z,6.40
2023-04-09T13:32:18.192Z,6.68
2023-04-09T13:34:46.077Z,7.85
2023-04-09T13:37:13.421Z,7.43
2023-04-09T13:39:40.788Z,7.05
2023-04-09T13:42:13.633Z,7.50
2023-04-09T13:44:44.642Z,6.55
2023-04-09T13:47:13.459Z,7.55
2023-04-09T13:49:41.487Z,7.78
2023-04-09T13:52:09.480Z,7.68
2023-04-09T13:54:37.105Z,5.97
2023-04-09T13:57:04.342Z,5.05
2023-04-09T13:59:31.581Z,5.85
2023-04-09T14:01:58.881Z,7.03
2023-04-09T14:04:26.256Z,6.38
2023-04-09T14:06:53.590Z,6.95
2023-04-09T14:09:21.087Z,7.10
2023-04-09T14:11:49.366Z,7.10
2023-04-09T14:14:16.830Z,7.35
2023-04-09T14:16:44.076Z,7.57
2023-04-09T14:19:11.380Z,7.43
2023-04-09T14:21:39.760Z,6.85
2023-04-09T14:24:07.636Z,7.25
2023-04-09T14:26:34.921Z,7.90
2023-04-09T14:29:02.237Z,8.98
2023-04-09T14:31:29.640Z,7.95
2023-04-09T14:33:57.044Z,8.38
2023-04-09T14:36:24.854Z,8.13
2023-04-09T14:38:53.278Z,7.63
2023-04-09T14:41:21.998Z,7.75
2023-04-09T14:43:49.252Z,7.45
2023-04-09T14:46:16.469Z,7.53
2023-04-09T14:48:43.691Z,7.35
2023-04-09T14:51:11.267Z,6.93
2023-04-09T14:53:38.913Z,7.85
2023-04-09T14:56:06.618Z,7.97
2023-04-09T14:58:33.930Z,9.77
2023-04-09T15:01:01.231Z,10.52
2023-04-09T15:03:28.614Z,8.30
2023-04-09T15:05:56.809Z,9.82
2023-04-09T15:08:24.053Z,10.75
2023-04-09T15:10:51.519Z,11.15
2023-04-09T15:13:18.755Z,9.07
2023-04-09T15:15:46.375Z,9.45
2023-04-09T15:18:13.708Z,7.75
2023-04-09T15:20:43.256Z,8.05
2023-04-09T15:23:11.053Z,8.32
2023-04-09T15:25:38.932Z,8.40
2023-04-09T15:28:06.797Z,7.85
2023-04-09T15:30:35.513Z,8.45
2023-04-09T15:33:02.961Z,8.82
2023-04-09T15:35:30.371Z,8.15
2023-04-09T15:37:57.846Z,8.13
2023-04-09T15:40:25.420Z,8.48
2023-04-09T15:42:52.635Z,8.25
2023-04-09T15:45:19.973Z,8.93
2023-04-09T15:47:47.466Z,8.95
2023-04-09T15:50:14.912Z,9.25
2023-04-09T15:52:42.305Z,7.90
2023-04-09T15:55:10.016Z,10.45
2023-04-09T15:57:38.554Z,8.57
2023-04-09T16:00:10.229Z,8.50
2023-04-09T16:02:38.919Z,9.98
2023-04-09T16:05:07.220Z,10.20
2023-04-09T16:07:35.209Z,10.55
2023-04-09T16:10:04.618Z,9.07
2023-04-09T16:12:33.581Z,9.65
2023-04-09T16:15:00.892Z,8.45
2023-04-09T16:17:28.338Z,8.77
2023-04-09T16:19:56.391Z,8.75
2023-04-09T16:22:23.750Z,8.40
2023-04-09T16:24:50.980Z,8.27
2023-04-09T16:27:18.462Z,9.07
2023-04-09T16:29:46.229Z,8.93
2023-04-09T16:32:13.744Z,9.98
2023-04-09T16:34:41.203Z,9.75
2023-04-09T16:37:08.643Z,10.52
2023-04-09T16:39:35.951Z,9.68
2023-04-09T16:42:03.313Z,9.50
2023-04-09T16:44:30.791Z,9.10
2023-04-09T16:46:58.049Z,9.07
2023-04-09T16:49:25.336Z,9.07
2023-04-09T16:51:53.251Z,8.73
2023-04-09T16:54:20.826Z,8.90
2023-04-09T16:56:48.800Z,8.68
2023-04-09T16:59:18.453Z,10.77
2023-04-09T17:01:46.027Z,10.40
2023-04-09T17:04:13.704Z,11.43
2023-04-09T17:06:41.133Z,12.15
2023-04-09T17:09:08.495Z,10.13
2023-04-09T17:11:37.980Z,9.25
2023-04-09T17:14:05.829Z,9.43
2023-04-09T17:16:33.501Z,10.70
2023-04-09T17:19:00.919Z,10.55
2023-04-09T17:21:28.114Z,10.83
2023-04-09T17:23:55.380Z,12.23
2023-04-09T17:26:22.559Z,13.40
2023-04-09T17:28:49.755Z,11.32
2023-04-09T17:31:17.780Z,10.80
2023-04-09T17:33:48.723Z,9.82
2023-04-09T17:36:19.972Z,10.57
2023-04-09T17:38:47.852Z,9.45
2023-04-09T17:41:15.656Z,10.70
2023-04-09T17:43:42.955Z,10.37
2023-04-09T17:46:11.499Z,10.13
2023-04-09T17:48:39.043Z,9.35
2023-04-09T17:51:06.892Z,8.82
2023-04-09T17:53:34.131Z,10.13
2023-04-09T17:56:03.881Z,10.87
2023-04-09T17:58:31.092Z,11.27
2023-04-09T18:00:59.562Z,10.50
2023-04-09T18:03:27.110Z,10.37
2023-04-09T18:05:54.750Z,9.43
2023-04-09T18:08:22.241Z,10.33
2023-04-09T18:11:04.973Z,11.93
2023-04-09T18:13:36.434Z,12.63
2023-04-09T18:16:03.865Z,11.40
2023-04-09T18:18:31.156Z,10.80
2023-04-09T18:20:58.320Z,12.40
2023-04-09T18:23:27.070Z,11.73
2023-04-09T18:25:54.265Z,12.40
2023-04-09T18:28:21.799Z,13.07
2023-04-09T18:30:49.291Z,12.77
2023-04-09T18:33:16.573Z,11.23
2023-04-09T18:35:43.834Z,11.40
2023-04-09T18:38:11.270Z,11.60
2023-04-09T18:40:43.123Z,14.17
2023-04-09T18:43:12.427Z,12.23
2023-04-09T18:45:39.810Z,11.67
2023-04-09T18:48:08.640Z,12.43
2023-04-09T18:50:36.174Z,12.47
2023-04-09T18:53:05.553Z,12.00
2023-04-09T18:55:35.863Z,12.47
2023-04-09T18:58:05.281Z,12.17
2023-04-09T19:00:32.499Z,14.47
2023-04-09T19:03:00.072Z,12.63
2023-04-09T19:05:29.719Z,12.10
2023-04-09T19:08:05.276Z,11.37
2023-04-09T19:10:32.929Z,13.87
2023-04-09T19:13:00.317Z,9.73
2023-04-09T19:15:29.341Z,11.13
2023-04-09T19:17:57.460Z,10.60
2023-04-09T19:20:24.890Z,11.90
2023-04-09T19:22:57.398Z,10.23
2023-04-09T19:25:24.761Z,10.53
2023-04-09T19:27:54.198Z,11.37
2023-04-09T19:30:21.633Z,12.47
2023-04-09T19:32:48.926Z,10.77
2023-04-09T19:35:16.885Z,13.53
2023-04-09T19:37:44.926Z,13.20
2023-04-09T19:40:15.473Z,13.50
2023-04-09T19:42:42.800Z,12.53
2023-04-09T19:45:10.550Z,12.40
2023-04-09T19:47:37.798Z,13.13
2023-04-09T19:50:05.511Z,13.97
2023-04-09T19:52:33.139Z,12.80
2023-04-09T19:55:01.818Z,13.63
2023-04-09T19:57:31.634Z,12.57
2023-04-09T19:59:58.932Z,12.60
2023-04-09T20:02:26.346Z,13.40
2023-04-09T20:04:54.521Z,11.73
2023-04-09T20:07:21.875Z,12.83
2023-04-09T20:09:49.687Z,13.33
2023-04-09T20:12:17.043Z,12.27
2023-04-09T20:14:44.573Z,13.17
2023-04-09T20:17:12.100Z,12.60
2023-04-09T20:19:39.302Z,11.30
2023-04-09T20:22:06.580Z,10.83
2023-04-09T20:24:35.360Z,11.53
2023-04-09T20:27:03.792Z,11.17
2023-04-09T20:29:31.082Z,11.07
2023-04-09T20:31:58.438Z,11.70
2023-04-09T20:34:28.856Z,11.40
2023-04-09T20:36:56.647Z,10.97
2023-04-09T20:39:26.677Z,11.17
2023-04-09T20:41:55.045Z,11.07
2023-04-09T20:44:22.748Z,14.40
2023-04-09T20:46:51.046Z,13.67
2023-04-09T20:49:18.385Z,13.80
2023-04-09T20:51:46.332Z,13.37
2023-04-09T20:54:13.795Z,11.63
2023-04-09T20:56:41.550Z,11.53
2023-04-09T20:59:08.860Z,14.17
